createdAt,value
2018-02-10T00:01:26.402Z,57.40
2018-02-10T00:03:53.109Z,56.87
2018-02-10T00:06:20.150Z,58.60
2018-02-10T00:08:46.942Z,60.13
2018-02-10T00:11:13.528Z,54.40
2018-02-10T00:13:40.895Z,60.93
2018-02-10T00:16:07.792Z,59.00
2018-02-10T00:18:34.354Z,56.80
2018-02-10T00:21:01.885Z,59.27
2018-02-10T00:23:28.607Z,52.40
2018-02-10T00:25:55.924Z,58.10
2018-02-10T00:28:24.523Z,57.17
2018-02-10T00:30:51.223Z,55.07
2018-02-10T00:33:17.790Z,60.67
2018-02-10T00:35:44.408Z,54.37
2018-02-10T00:38:11.626Z,57.13
2018-02-10T00:40:38.240Z,56.87
2018-02-10T00:43:05.462Z,62.70
2018-02-10T00:45:32.462Z,57.73
2018-02-10T00:47:59.917Z,55.27
2018-02-10T00:50:28.566Z,55.60
2018-02-10T00:52:55.214Z,56.10
2018-02-10T00:55:21.711Z,54.20
2018-02-10T00:57:48.261Z,58.90
2018-02-10T01:00:15.724Z,55.40
2018-02-10T01:02:43.101Z,49.40
2018-02-10T01:05:10.395Z,54.60
2018-02-10T01:07:37.087Z,57.90
2018-02-10T01:10:04.365Z,50.60
2018-02-10T01:12:30.899Z,57.50
2018-02-10T01:14:58.499Z,54.00
2018-02-10T01:17:25.071Z,54.50
2018-02-10T01:19:51.567Z,56.50
2018-02-10T01:22:18.516Z,52.90
2018-02-10T01:24:45.748Z,57.77
2018-02-10T01:27:13.138Z,51.40
2018-02-10T01:29:40.008Z,55.57
2018-02-10T01:32:06.551Z,54.10
2018-02-10T01:34:33.950Z,55.40
2018-02-10T01:37:01.464Z,52.90
2018-02-10T01:39:29.029Z,53.90
2018-02-10T01:41:56.529Z,53.80
2018-02-10T01:44:24.173Z,53.17
2018-02-10T01:46:50.965Z,53.53
2018-02-10T01:49:18.869Z,49.97
2018-02-10T01:51:45.700Z,50.50
2018-02-10T01:54:12.284Z,54.50
2018-02-10T01:56:39.204Z,51.47
2018-02-10T01:59:05.884Z,51.70
2018-02-10T02:01:32.404Z,52.70
2018-02-10T02:03:58.964Z,53.67
2018-02-10T02:06:26.137Z,56.30
2018-02-10T02:08:52.684Z,54.93
2018-02-10T02:11:19.927Z,50.50
2018-02-10T02:13:47.075Z,50.80
2018-02-10T02:16:15.116Z,58.60
2018-02-10T02:18:41.611Z,56.83
2018-02-10T02:21:09.044Z,54.43
2018-02-10T02:23:36.083Z,53.57
2018-02-10T02:26:02.750Z,57.50
2018-02-10T02:28:29.434Z,54.43
2018-02-10T02:30:55.971Z,55.57
2018-02-10T02:33:23.938Z,53.20
2018-02-10T02:35:50.782Z,55.60
2018-02-10T02:38:17.405Z,53.97
2018-02-10T02:40:43.899Z,54.53
2018-02-10T02:43:10.602Z,54.57
2018-02-10T02:45:37.251Z,57.13
2018-02-10T02:48:03.787Z,50.50
2018-02-10T02:50:32.451Z,52.97
2018-02-10T02:52:58.919Z,54.53
2018-02-10T02:55:26.129Z,56.33
2018-02-10T02:57:52.742Z,54.07
2018-02-10T03:00:19.221Z,54.87
2018-02-10T03:02:46.082Z,51.93
2018-02-10T03:05:12.829Z,54.70
2018-02-10T03:07:40.062Z,54.17
2018-02-10T03:10:06.775Z,53.53
2018-02-10T03:12:34.736Z,56.67
2018-02-10T03:15:01.230Z,50.37
2018-02-10T03:17:28.061Z,51.07
2018-02-10T03:19:55.769Z,55.07
2018-02-10T03:22:22.231Z,53.37
2018-02-10T03:24:48.721Z,56.47
2018-02-10T03:27:15.963Z,54.63
2018-02-10T03:29:43.246Z,53.20
2018-02-10T03:32:09.782Z,57.00
2018-02-10T03:34:36.339Z,55.70
2018-02-10T03:37:03.060Z,56.90
2018-02-10T03:39:29.614Z,50.67
2018-02-10T03:41:56.302Z,58.10
2018-02-10T03:44:22.866Z,51.33
2018-02-10T03:46:49.471Z,55.07
2018-02-10T03:49:16.774Z,57.80
2018-02-10T03:51:44.601Z,58.57
2018-02-10T03:54:11.173Z,50.97
2018-02-10T03:56:37.747Z,49.90
2018-02-10T03:59:04.330Z,51.80
2018-02-10T04:01:30.958Z,54.00
2018-02-10T04:03:58.455Z,54.50
2018-02-10T04:06:25.767Z,54.83
2018-02-10T04:08:52.381Z,57.60
2018-02-10T04:11:20.243Z,51.97
2018-02-10T04:13:46.859Z,54.03
2018-02-10T04:16:14.132Z,52.13
2018-02-10T04:18:41.542Z,53.17
2018-02-10T04:21:08.074Z,54.20
2018-02-10T04:23:34.667Z,57.00
2018-02-10T04:26:01.669Z,56.47
2018-02-10T04:28:29.840Z,57.63
2018-02-10T04:30:56.598Z,52.77
2018-02-10T04:33:23.698Z,54.37
2018-02-10T04:35:50.191Z,54.53
2018-02-10T04:38:17.510Z,51.77
2018-02-10T04:40:45.862Z,53.63
2018-02-10T04:43:12.421Z,51.97
2018-02-10T04:45:52.142Z,53.60
2018-02-10T04:48:24.875Z,52.50
2018-02-10T04:50:51.418Z,53.60
2018-02-10T04:53:18.563Z,52.90
2018-02-10T04:55:45.833Z,54.10
2018-02-10T04:58:12.489Z,51.37
2018-02-10T05:00:39.327Z,54.00
2018-02-10T05:03:05.966Z,54.20
2018-02-10T05:05:32.523Z,52.40
2018-02-10T05:08:00.272Z,53.00
2018-02-10T05:10:26.816Z,57.10
2018-02-10T05:12:53.922Z,52.83
2018-02-10T05:15:20.636Z,54.63
2018-02-10T05:17:47.196Z,50.97
2018-02-10T05:20:14.080Z,50.70
2018-02-10T05:22:40.974Z,57.03
2018-02-10T05:25:07.514Z,50.80
2018-02-10T05:27:34.345Z,49.23
2018-02-10T05:30:01.676Z,53.30
2018-02-10T05:32:29.188Z,49.73
2018-02-10T05:34:56.568Z,52.80
2018-02-10T05:37:23.606Z,52.43
2018-02-10T05:39:50.131Z,53.33
2018-02-10T05:42:16.714Z,52.20
2018-02-10T05:44:43.244Z,56.00
2018-02-10T05:47:09.775Z,52.50
2018-02-10T05:49:36.332Z,52.47
2018-02-10T05:52:03.562Z,51.10
2018-02-10T05:54:30.130Z,54.10
2018-02-10T05:56:56.760Z,53.20
2018-02-10T05:59:23.492Z,56.10
2018-02-10T06:01:50.049Z,54.57
2018-02-10T06:04:17.354Z,52.27
2018-02-10T06:06:44.290Z,54.60
2018-02-10T06:09:12.190Z,53.03
2018-02-10T06:11:38.768Z,50.87
2018-02-10T06:14:05.464Z,52.53
2018-02-10T06:16:31.997Z,50.80
2018-02-10T06:18:58.616Z,51.17
2018-02-10T06:21:25.950Z,54.47
2018-02-10T06:23:53.165Z,55.77
2018-02-10T06:26:20.044Z,56.67
2018-02-10T06:28:46.839Z,56.10
2018-02-10T06:31:14.084Z,53.57
2018-02-10T06:33:40.613Z,58.00
2018-02-10T06:36:07.242Z,55.50
2018-02-10T06:38:33.720Z,58.13
2018-02-10T06:41:01.372Z,56.47
2018-02-10T06:43:28.832Z,57.93
2018-02-10T06:45:56.100Z,56.87
2018-02-10T06:48:22.533Z,55.20
2018-02-10T06:50:49.270Z,55.03
2018-02-10T06:53:16.533Z,58.40
2018-02-10T06:55:43.039Z,55.73
2018-02-10T06:58:09.715Z,56.40
2018-02-10T07:00:36.246Z,53.80
2018-02-10T07:03:02.828Z,58.10
2018-02-10T07:05:29.886Z,56.50
2018-02-10T07:07:56.415Z,54.73
2018-02-10T07:10:22.959Z,56.53
2018-02-10T07:12:49.717Z,60.17
2018-02-10T07:15:16.241Z,57.43
2018-02-10T07:17:43.677Z,55.20
2018-02-10T07:20:11.103Z,55.70
2018-02-10T07:22:38.327Z,59.53
2018-02-10T07:25:05.606Z,58.50
2018-02-10T07:27:32.541Z,59.60
2018-02-10T07:29:59.518Z,55.10
2018-02-10T07:32:25.994Z,54.57
2018-02-10T07:34:52.816Z,59.50
2018-02-10T07:37:19.435Z,60.20
2018-02-10T07:39:45.892Z,58.07
2018-02-10T07:42:12.490Z,56.47
2018-02-10T07:44:40.656Z,60.33
2018-02-10T07:47:08.087Z,54.37
2018-02-10T07:49:35.527Z,58.03
2018-02-10T07:52:02.825Z,56.80
2018-02-10T07:54:29.419Z,60.43
2018-02-10T07:56:56.579Z,56.63
2018-02-10T07:59:24.170Z,57.40
2018-02-10T08:01:50.693Z,56.80
2018-02-10T08:04:17.768Z,54.30
2018-02-10T08:06:45.932Z,56.60
2018-02-10T08:09:12.488Z,56.43
2018-02-10T08:11:39.703Z,57.07
2018-02-10T08:14:06.217Z,57.37
2018-02-10T08:16:33.665Z,58.03
2018-02-10T08:19:00.539Z,54.90
2018-02-10T08:21:28.570Z,56.20
2018-02-10T08:23:55.212Z,61.23
2018-02-10T08:26:22.497Z,59.67
2018-02-10T08:28:49.008Z,56.87
2018-02-10T08:31:15.640Z,57.70
2018-02-10T08:33:43.261Z,55.60
2018-02-10T08:36:10.884Z,59.57
2018-02-10T08:38:37.572Z,59.03
2018-02-10T08:41:04.146Z,58.20
2018-02-10T08:43:30.679Z,56.07
2018-02-10T08:45:57.988Z,54.20
2018-02-10T08:48:26.374Z,59.50
2018-02-10T08:50:53.676Z,59.23
2018-02-10T08:53:20.261Z,58.30
2018-02-10T08:55:46.832Z,60.30
2018-02-10T08:58:14.396Z,59.70
2018-02-10T09:00:42.069Z,61.37
2018-02-10T09:03:09.940Z,57.43
2018-02-10T09:05:37.232Z,53.53
2018-02-10T09:08:04.201Z,58.83
2018-02-10T09:10:30.835Z,57.47
2018-02-10T09:12:57.721Z,56.67
2018-02-10T09:15:24.218Z,53.03
2018-02-10T09:17:50.884Z,57.90
2018-02-10T09:20:18.876Z,60.13
2018-02-10T09:22:46.895Z,58.70
2018-02-10T09:25:15.356Z,60.20
2018-02-10T09:27:42.354Z,60.30
2018-02-10T09:30:09.940Z,57.40
2018-02-10T09:32:37.406Z,55.57
2018-02-10T09:35:05.567Z,56.67
2018-02-10T09:37:32.150Z,59.87
2018-02-10T09:40:00.158Z,56.20
2018-02-10T09:42:27.601Z,55.10
2018-02-10T09:44:55.181Z,55.87
2018-02-10T09:47:22.240Z,58.97
2018-02-10T09:49:48.952Z,57.43
2018-02-10T09:52:15.475Z,57.90
2018-02-10T09:54:43.679Z,55.47
2018-02-10T09:57:10.915Z,57.33
2018-02-10T09:59:38.685Z,58.03
2018-02-10T10:02:06.087Z,56.60
2018-02-10T10:04:33.426Z,61.07
2018-02-10T10:06:59.974Z,58.03
2018-02-10T10:09:26.633Z,60.20
2018-02-10T10:11:53.062Z,47.10
2018-02-10T10:44:19.137Z,57.37
2018-02-10T10:46:45.872Z,57.40
2018-02-10T10:49:13.196Z,56.70
2018-02-10T10:51:39.977Z,55.80
2018-02-10T10:54:06.961Z,58.63
2018-02-10T10:56:33.419Z,60.10
2018-02-10T10:59:00.233Z,53.20
2018-02-10T11:01:27.001Z,54.37
2018-02-10T11:03:53.740Z,56.97
2018-02-10T11:06:20.202Z,62.77
2018-02-10T11:08:47.041Z,54.57
2018-02-10T11:11:13.469Z,52.10
2018-02-10T11:13:40.790Z,57.90
2018-02-10T11:16:07.711Z,57.90
2018-02-10T11:18:34.097Z,53.63
2018-02-10T11:21:00.510Z,57.20
2018-02-10T11:23:27.735Z,56.47
2018-02-10T11:25:54.317Z,55.33
2018-02-10T11:28:21.129Z,57.23
2018-02-10T11:30:48.046Z,57.33
2018-02-10T11:33:14.536Z,55.17
2018-02-10T11:35:41.967Z,58.90
2018-02-10T11:38:08.253Z,58.03
2018-02-10T11:40:34.658Z,53.60
2018-02-10T11:43:01.012Z,39.80
2018-02-10T11:45:29.116Z,52.17
2018-02-10T11:47:55.522Z,55.37
2018-02-10T11:50:23.550Z,56.63
2018-02-10T11:52:50.634Z,49.93
2018-02-10T11:55:17.813Z,56.50
2018-02-10T11:57:45.021Z,57.60
2018-02-10T12:00:12.564Z,49.77
2018-02-10T12:02:39.960Z,49.47
2018-02-10T12:05:08.313Z,52.63
2018-02-10T12:07:35.459Z,53.83
2018-02-10T12:10:02.712Z,53.93
2018-02-10T12:12:30.576Z,53.70
2018-02-10T12:14:57.700Z,52.53
2018-02-10T12:17:24.133Z,51.37
2018-02-10T12:19:51.963Z,53.13
2018-02-10T12:22:18.329Z,54.53
2018-02-10T12:24:44.676Z,54.37
2018-02-10T12:27:11.115Z,55.47
2018-02-10T12:29:38.621Z,53.30
2018-02-10T12:32:04.990Z,53.80
2018-02-10T12:34:31.521Z,47.27
2018-02-10T12:36:58.342Z,49.60
2018-02-10T12:39:25.484Z,53.40
2018-02-10T12:41:52.357Z,53.07
2018-02-10T12:44:20.428Z,52.13
2018-02-10T12:46:47.626Z,50.17
2018-02-10T12:49:31.700Z,54.50
2018-02-10T12:51:58.015Z,50.47
2018-02-10T12:57:20.685Z,48.30
2018-02-10T12:59:47.733Z,50.60
2018-02-10T13:02:14.143Z,49.60
2018-02-10T13:04:40.635Z,47.50
2018-02-10T13:07:07.702Z,50.83
2018-02-10T13:09:34.800Z,48.13
2018-02-10T13:12:03.242Z,50.13
2018-02-10T13:14:30.149Z,52.23
2018-02-10T13:16:58.869Z,52.67
2018-02-10T13:19:27.062Z,52.07
2018-02-10T13:21:53.486Z,51.63
2018-02-10T13:24:20.399Z,50.43
2018-02-10T13:26:48.094Z,51.10
2018-02-10T13:29:15.476Z,50.90
2018-02-10T13:34:32.763Z,53.17
2018-02-10T13:37:01.004Z,51.37
2018-02-10T13:39:27.464Z,51.50
2018-02-10T13:41:54.018Z,49.40
2018-02-10T13:44:22.000Z,51.03
2018-02-10T13:46:48.856Z,50.77
2018-02-10T13:49:16.542Z,48.43
2018-02-10T13:51:43.218Z,44.27
2018-02-10T13:54:10.888Z,45.30
2018-02-10T13:56:40.310Z,49.17
2018-02-10T13:59:06.866Z,48.67
2018-02-10T14:01:33.859Z,47.07
2018-02-10T14:04:01.385Z,46.40
2018-02-10T14:06:28.044Z,48.57
2018-02-10T14:08:55.276Z,51.13
2018-02-10T14:11:22.166Z,47.60
2018-02-10T14:13:50.391Z,48.03
2018-02-10T14:16:17.286Z,50.70
2018-02-10T14:18:44.668Z,50.07
2018-02-10T14:21:12.051Z,49.57
2018-02-10T14:23:38.853Z,48.17
2018-02-10T14:26:05.437Z,49.77
2018-02-10T14:28:32.345Z,51.57
2018-02-10T14:30:59.014Z,51.07
2018-02-10T14:33:26.961Z,49.17
2018-02-10T14:35:55.475Z,52.43
2018-02-10T14:38:32.963Z,52.40
2018-02-10T14:41:01.217Z,47.20
2018-02-10T14:43:28.026Z,49.27
2018-02-10T14:45:55.713Z,46.90
2018-02-10T14:48:22.402Z,50.00
2018-02-10T14:50:49.189Z,52.90
2018-02-10T14:53:16.506Z,50.43
2018-02-10T14:55:43.891Z,52.77
2018-02-10T14:58:10.342Z,50.37
2018-02-10T15:00:37.216Z,53.53
2018-02-10T15:03:04.644Z,49.73
2018-02-10T15:05:31.424Z,51.10
2018-02-10T15:07:58.190Z,50.07
2018-02-10T15:10:24.965Z,49.57
2018-02-10T15:12:51.562Z,50.37
2018-02-10T15:15:18.590Z,50.33
2018-02-10T15:17:46.695Z,50.70
2018-02-10T15:20:13.235Z,48.43
2018-02-10T15:22:39.724Z,47.97
2018-02-10T15:25:06.698Z,48.10
2018-02-10T15:27:34.034Z,53.97
2018-02-10T15:30:12.813Z,50.70
2018-02-10T15:32:52.654Z,51.57
2018-02-10T15:35:19.683Z,52.60
2018-02-10T15:37:46.225Z,52.90
2018-02-10T15:40:13.887Z,50.73
2018-02-10T15:42:41.902Z,51.27
2018-02-10T15:45:08.335Z,54.73
2018-02-10T15:47:35.356Z,55.80
2018-02-10T15:50:03.696Z,52.37
2018-02-10T15:52:31.789Z,54.40
2018-02-10T15:54:58.283Z,55.00
2018-02-10T15:57:24.885Z,52.50
2018-02-10T15:59:51.487Z,53.20
2018-02-10T16:02:19.407Z,51.40
2018-02-10T16:04:46.047Z,55.80
2018-02-10T16:07:12.971Z,54.40
2018-02-10T16:09:40.372Z,51.23
2018-02-10T16:12:07.133Z,55.53
2018-02-10T16:14:33.810Z,54.17
2018-02-10T16:17:00.730Z,58.00
2018-02-10T16:19:28.988Z,56.30
2018-02-10T16:21:55.474Z,57.17
2018-02-10T16:24:22.729Z,56.80
2018-02-10T16:26:49.380Z,56.20
2018-02-10T16:29:17.596Z,54.40
2018-02-10T16:31:45.222Z,54.57
2018-02-10T16:34:12.105Z,56.87
2018-02-10T16:36:39.385Z,58.23
2018-02-10T16:39:06.716Z,55.70
2018-02-10T16:41:33.409Z,58.00
2018-02-10T16:44:00.397Z,60.07
2018-02-10T16:46:27.845Z,60.00
2018-02-10T16:48:54.877Z,58.97
2018-02-10T16:51:22.519Z,57.80
2018-02-10T16:53:50.422Z,58.40
2018-02-10T16:56:17.081Z,57.80
2018-02-10T16:58:43.592Z,62.77
2018-02-10T17:01:11.605Z,58.63
2018-02-10T17:03:38.385Z,60.17
2018-02-10T17:06:05.622Z,63.30
2018-02-10T17:08:32.943Z,64.47
2018-02-10T17:10:59.822Z,62.60
2018-02-10T17:13:27.104Z,61.60
2018-02-10T17:21:10.606Z,61.17
2018-02-10T17:23:38.042Z,61.10
2018-02-10T17:26:05.299Z,57.33
2018-02-10T17:28:33.584Z,62.07
2018-02-10T17:31:01.780Z,58.37
2018-02-10T17:33:29.656Z,60.57
2018-02-10T17:35:56.284Z,57.27
2018-02-10T17:38:24.129Z,60.33
2018-02-10T17:40:51.330Z,58.93
2018-02-10T17:43:17.962Z,60.20
2018-02-10T17:45:44.926Z,61.40
2018-02-10T17:48:11.965Z,62.37
2018-02-10T17:50:39.005Z,64.17
2018-02-10T17:53:07.458Z,60.10
2018-02-10T17:55:35.862Z,69.00
2018-02-10T17:58:04.476Z,67.00
2018-02-10T18:00:39.554Z,65.00
2018-02-10T18:03:06.600Z,66.07
2018-02-10T18:05:34.056Z,68.30
2018-02-10T18:08:00.757Z,65.07
2018-02-10T18:10:27.344Z,68.03
2018-02-10T18:12:54.660Z,72.33
2018-02-10T18:15:24.023Z,70.30
2018-02-10T18:17:51.328Z,71.20
2018-02-10T18:20:17.774Z,73.50
2018-02-10T18:22:45.397Z,72.50
2018-02-10T18:25:12.699Z,76.57
2018-02-10T18:27:39.089Z,73.77
2018-02-10T18:30:06.408Z,76.00
2018-02-10T18:32:33.678Z,87.23
2018-02-10T18:35:00.493Z,85.73
2018-02-10T18:37:28.166Z,86.97
2018-02-10T18:39:55.463Z,87.30
2018-02-10T18:42:24.702Z,86.50
2018-02-10T18:44:51.300Z,90.33
2018-02-10T18:47:17.768Z,85.00
2018-02-10T18:49:44.522Z,85.00
2018-02-10T18:52:12.946Z,84.87
2018-02-10T18:54:39.525Z,79.83
2018-02-10T18:57:07.445Z,81.73
2018-02-10T18:59:34.250Z,79.97
2018-02-10T19:02:00.827Z,81.70
2018-02-10T19:04:28.185Z,76.90
2018-02-10T19:06:55.021Z,73.57
2018-02-10T19:09:23.084Z,73.70
2018-02-10T19:11:50.817Z,80.47
2018-02-10T19:14:17.571Z,83.63
2018-02-10T19:16:45.642Z,77.60
2018-02-10T19:19:13.917Z,76.77
2018-02-10T19:21:40.845Z,79.47
2018-02-10T19:24:07.521Z,78.40
2018-02-10T19:26:34.357Z,81.67
2018-02-10T19:29:00.898Z,75.40
2018-02-10T19:31:27.529Z,80.87
2018-02-10T19:33:54.509Z,77.77
2018-02-10T19:36:21.537Z,73.30
2018-02-10T19:38:48.524Z,80.87
2018-02-10T19:41:15.086Z,82.20
2018-02-10T19:43:41.746Z,79.87
2018-02-10T19:46:08.282Z,81.57
2018-02-10T19:48:35.086Z,76.37
2018-02-10T19:51:06.541Z,73.70
2018-02-10T19:53:34.017Z,76.60
2018-02-10T19:56:01.591Z,76.30
2018-02-10T19:58:30.350Z,74.90
2018-02-10T20:00:58.808Z,77.57
2018-02-10T20:03:26.007Z,74.70
2018-02-10T20:05:52.539Z,65.17
2018-02-10T20:08:19.017Z,66.13
2018-02-10T20:10:45.837Z,69.20
2018-02-10T20:13:14.184Z,69.20
2018-02-10T20:15:42.397Z,72.53
2018-02-10T20:18:10.527Z,65.43
2018-02-10T20:20:37.180Z,64.43
2018-02-10T20:23:03.733Z,64.70
2018-02-10T20:25:30.640Z,63.47
2018-02-10T20:27:58.114Z,64.63
2018-02-10T20:30:25.088Z,62.80
2018-02-10T20:32:53.212Z,62.17
2018-02-10T20:35:21.298Z,61.70
2018-02-10T20:37:49.598Z,60.10
2018-02-10T20:40:16.208Z,57.00
2018-02-10T20:42:43.157Z,61.53
2018-02-10T20:45:10.526Z,59.20
2018-02-10T20:47:37.552Z,57.67
2018-02-10T20:50:04.597Z,55.40
2018-02-10T20:52:32.626Z,56.47
2018-02-10T20:54:59.174Z,56.40
2018-02-10T20:57:29.026Z,56.13
2018-02-10T20:59:55.534Z,53.87
2018-02-10T21:02:22.224Z,56.93
2018-02-10T21:04:49.718Z,56.00
2018-02-10T21:07:16.214Z,52.33
2018-02-10T21:09:42.836Z,53.43
2018-02-10T21:12:10.212Z,51.17
2018-02-10T21:14:36.802Z,49.30
2018-02-10T21:17:04.354Z,48.67
2018-02-10T21:19:31.272Z,49.83
2018-02-10T21:21:57.813Z,47.80
2018-02-10T21:24:24.468Z,50.60
2018-02-10T21:26:53.679Z,48.53
2018-02-10T21:29:21.414Z,46.40
2018-02-10T21:31:48.695Z,48.80
2018-02-10T21:34:15.508Z,45.67
2018-02-10T21:36:42.113Z,47.03
2018-02-10T21:39:08.607Z,48.20
2018-02-10T21:41:36.105Z,48.50
2018-02-10T21:44:02.598Z,48.93
2018-02-10T21:46:30.631Z,49.17
2018-02-10T21:48:58.059Z,44.77
2018-02-10T21:51:25.684Z,49.73
2018-02-10T21:53:54.632Z,47.17
2018-02-10T21:56:21.340Z,44.03
2018-02-10T21:58:48.229Z,42.93
2018-02-10T22:01:15.483Z,43.67
2018-02-10T22:03:42.219Z,41.30
2018-02-10T22:06:08.739Z,43.03
2018-02-10T22:08:35.222Z,45.23
2018-02-10T22:11:02.065Z,43.43
2018-02-10T22:13:28.683Z,39.67
2018-02-10T22:15:55.230Z,45.30
2018-02-10T22:18:22.337Z,40.87
2018-02-10T22:20:48.888Z,42.30
2018-02-10T22:23:15.499Z,47.10
2018-02-10T22:25:44.563Z,42.33
2018-02-10T22:28:11.011Z,40.90
2018-02-10T22:30:38.266Z,41.60
2018-02-10T22:33:05.105Z,42.97
2018-02-10T22:35:31.727Z,44.97
2018-02-10T22:37:58.980Z,43.53
2018-02-10T22:40:27.262Z,42.80
2018-02-10T22:42:53.745Z,38.87
2018-02-10T22:45:20.940Z,40.80
2018-02-10T22:47:48.633Z,41.37
2018-02-10T22:50:15.163Z,38.40
2018-02-10T22:52:50.702Z,41.97
2018-02-10T22:55:19.780Z,41.17
2018-02-10T22:57:47.184Z,42.93
2018-02-10T23:00:14.079Z,41.47
2018-02-10T23:02:41.285Z,40.43
2018-02-10T23:05:20.453Z,42.93
2018-02-10T23:07:51.938Z,41.07
2018-02-10T23:10:19.334Z,38.10
2018-02-10T23:12:45.772Z,36.77
2018-02-10T23:15:12.226Z,40.57
2018-02-10T23:17:38.743Z,38.13
2018-02-10T23:20:08.512Z,38.10
2018-02-10T23:25:15.794Z,39.83
2018-02-10T23:27:43.086Z,40.30
2018-02-10T23:30:10.623Z,38.57
2018-02-10T23:32:37.501Z,37.73
2018-02-10T23:35:04.177Z,39.60
2018-02-10T23:37:30.997Z,40.83
2018-02-10T23:39:58.358Z,39.27
2018-02-10T23:42:25.964Z,40.27
2018-02-10T23:44:52.437Z,39.73
2018-02-10T23:47:18.908Z,40.07
2018-02-10T23:49:45.745Z,41.67
2018-02-10T23:52:12.232Z,40.93
2018-02-10T23:54:38.657Z,37.23
2018-02-10T23:57:05.311Z,41.37
2018-02-10T23:59:31.804Z,37.83
